createdAt,value
2023-04-13T00:00:27.924Z,12.80
2023-04-13T00:03:17.984Z,14.60
2023-04-13T00:05:46.966Z,13.70
2023-04-13T00:08:17.339Z,13.30
2023-04-13T00:10:46.225Z,12.80
2023-04-13T00:13:15.204Z,13.20
2023-04-13T00:15:43.886Z,13.90
2023-04-13T00:18:12.505Z,11.60
2023-04-13T00:20:42.070Z,10.30
2023-04-13T00:23:10.834Z,10.70
2023-04-13T00:25:38.752Z,9.90
2023-04-13T00:28:07.128Z,12.10
2023-04-13T00:30:35.102Z,11.70
2023-04-13T00:33:06.324Z,13.10
2023-04-13T00:35:34.753Z,13.30
2023-04-13T00:38:03.445Z,11.50
2023-04-13T00:40:31.621Z,12.50
2023-04-13T00:43:01.030Z,12.60
2023-04-13T00:45:29.824Z,14.80
2023-04-13T00:47:58.140Z,14.90
2023-04-13T00:50:26.511Z,14.10
2023-04-13T00:52:54.601Z,14.90
2023-04-13T00:55:22.682Z,13.00
2023-04-13T00:57:52.655Z,11.80
2023-04-13T01:00:22.034Z,12.30
2023-04-13T01:02:52.739Z,16.10
2023-04-13T01:05:21.631Z,16.90
2023-04-13T01:08:01.651Z,12.50
2023-04-13T01:10:43.633Z,17.50
2023-04-13T01:13:34.571Z,11.60
2023-04-13T01:16:25.533Z,13.30
2023-04-13T01:18:56.084Z,14.90
2023-04-13T01:21:26.985Z,14.40
2023-04-13T01:24:20.329Z,16.90
2023-04-13T01:26:58.639Z,16.70
2023-04-13T01:29:27.694Z,12.50
2023-04-13T01:31:57.534Z,16.50
2023-04-13T01:34:25.675Z,16.70
2023-04-13T01:36:54.420Z,16.30
2023-04-13T01:39:25.623Z,15.50
2023-04-13T01:42:02.431Z,14.00
2023-04-13T01:44:34.037Z,14.70
2023-04-13T01:47:17.141Z,13.30
2023-04-13T01:49:57.981Z,14.70
2023-04-13T01:52:51.470Z,15.60
2023-04-13T01:55:23.930Z,15.70
2023-04-13T01:57:56.973Z,13.80
2023-04-13T02:00:32.410Z,11.90
2023-04-13T02:03:00.551Z,15.70
2023-04-13T02:05:28.590Z,15.90
2023-04-13T02:07:56.699Z,13.80
2023-04-13T02:10:24.634Z,16.50
2023-04-13T02:12:54.440Z,15.40
2023-04-13T02:15:23.583Z,14.50
2023-04-13T02:17:52.601Z,18.40
2023-04-13T02:20:21.017Z,15.40
2023-04-13T02:22:49.040Z,17.90
2023-04-13T02:25:17.558Z,14.20
2023-04-13T02:27:45.683Z,19.00
2023-04-13T02:30:13.635Z,16.90
2023-04-13T02:32:41.846Z,14.90
2023-04-13T02:35:11.533Z,14.80
2023-04-13T02:37:40.385Z,15.80
2023-04-13T02:40:12.657Z,13.60
2023-04-13T02:42:42.298Z,11.60
2023-04-13T02:45:12.482Z,13.50
2023-04-13T02:47:41.402Z,14.10
2023-04-13T02:50:09.428Z,12.90
2023-04-13T02:52:44.015Z,12.10
2023-04-13T02:55:13.137Z,12.10
2023-04-13T02:57:49.973Z,12.50
2023-04-13T03:00:18.634Z,11.30
2023-04-13T03:02:53.278Z,12.90
2023-04-13T03:05:22.017Z,11.90
2023-04-13T03:07:49.922Z,13.40
2023-04-13T03:10:19.224Z,16.30
2023-04-13T03:12:47.812Z,13.20
2023-04-13T03:15:18.444Z,11.10
2023-04-13T03:17:46.450Z,12.00
2023-04-13T03:20:21.386Z,10.90
2023-04-13T03:22:55.459Z,13.00
2023-04-13T03:25:23.661Z,9.40
2023-04-13T03:27:51.811Z,10.60
2023-04-13T03:30:21.646Z,12.90
2023-04-13T03:32:58.289Z,12.10
2023-04-13T03:35:28.072Z,9.70
2023-04-13T03:37:57.443Z,9.60
2023-04-13T03:40:33.751Z,12.40
2023-04-13T03:43:01.832Z,13.90
2023-04-13T03:45:32.138Z,11.60
2023-04-13T03:48:01.768Z,13.20
2023-04-13T03:50:29.931Z,12.20
2023-04-13T03:52:57.863Z,10.30
2023-04-13T03:55:26.166Z,11.10
2023-04-13T03:57:55.567Z,13.50
2023-04-13T04:00:27.303Z,10.40
2023-04-13T04:03:06.149Z,10.40
2023-04-13T04:05:47.164Z,12.70
2023-04-13T04:08:15.516Z,11.00
2023-04-13T04:10:43.955Z,10.90
2023-04-13T04:13:12.599Z,12.40
2023-04-13T04:15:43.673Z,11.50
2023-04-13T04:18:11.763Z,10.10
2023-04-13T04:20:40.515Z,12.60
2023-04-13T04:23:11.347Z,12.20
2023-04-13T04:25:59.629Z,15.70
2023-04-13T04:28:31.382Z,13.00
2023-04-13T04:31:01.375Z,11.70
2023-04-13T04:33:29.405Z,14.50
2023-04-13T04:35:58.555Z,14.00
2023-04-13T04:38:30.603Z,12.80
2023-04-13T04:41:02.207Z,12.50
2023-04-13T04:43:30.560Z,13.40
2023-04-13T04:45:59.048Z,13.30
2023-04-13T04:48:31.711Z,10.80
2023-04-13T04:51:00.264Z,14.20
2023-04-13T04:53:32.855Z,11.00
2023-04-13T04:56:01.916Z,11.80
2023-04-13T04:58:48.830Z,9.00
2023-04-13T05:01:18.127Z,11.40
2023-04-13T05:03:47.113Z,14.50
2023-04-13T05:06:41.256Z,13.00
2023-04-13T05:09:11.052Z,11.80
2023-04-13T05:11:41.501Z,19.30
2023-04-13T05:14:12.084Z,12.30
2023-04-13T05:16:40.668Z,16.60
2023-04-13T05:19:15.272Z,17.00
2023-04-13T05:21:48.590Z,13.00
2023-04-13T05:24:16.572Z,13.80
2023-04-13T05:26:44.709Z,11.40
2023-04-13T05:29:14.634Z,16.30
2023-04-13T05:31:44.866Z,15.80
2023-04-13T05:34:13.062Z,12.20
2023-04-13T05:36:43.033Z,13.40
2023-04-13T05:39:12.919Z,23.60
2023-04-13T05:41:41.228Z,15.20
2023-04-13T05:44:09.264Z,17.40
2023-04-13T05:46:37.934Z,13.70
2023-04-13T05:49:07.026Z,16.40
2023-04-13T05:51:35.658Z,10.50
2023-04-13T05:54:03.818Z,11.00
2023-04-13T05:56:34.450Z,11.10
2023-04-13T05:59:06.829Z,9.90
2023-04-13T06:01:36.029Z,11.70
2023-04-13T06:04:04.426Z,14.70
2023-04-13T06:06:36.083Z,12.50
2023-04-13T06:09:06.386Z,14.80
2023-04-13T06:11:34.671Z,12.20
2023-04-13T06:14:03.816Z,15.60
2023-04-13T06:16:32.326Z,12.00
2023-04-13T06:19:02.971Z,11.80
2023-04-13T06:21:33.684Z,10.90
2023-04-13T06:24:01.868Z,10.20
2023-04-13T06:26:36.981Z,17.20
2023-04-13T06:29:05.575Z,15.40
2023-04-13T06:31:41.323Z,15.30
2023-04-13T06:34:13.982Z,13.10
2023-04-13T06:36:43.100Z,16.60
2023-04-13T06:39:14.449Z,19.10
2023-04-13T06:41:43.716Z,20.60
2023-04-13T06:44:18.711Z,9.50
2023-04-13T06:46:53.573Z,13.10
2023-04-13T06:49:22.241Z,11.10
2023-04-13T06:51:51.610Z,26.50
2023-04-13T06:54:20.197Z,15.10
2023-04-13T06:56:51.870Z,10.20
2023-04-13T06:59:20.460Z,10.40
2023-04-13T07:01:48.671Z,14.70
2023-04-13T07:04:17.040Z,11.80
2023-04-13T07:06:47.211Z,12.10
2023-04-13T07:09:15.473Z,10.70
2023-04-13T07:11:43.743Z,12.00
2023-04-13T07:14:12.752Z,16.60
2023-04-13T07:16:41.084Z,10.20
2023-04-13T07:19:09.347Z,10.00
2023-04-13T07:21:38.035Z,11.50
2023-04-13T07:24:07.257Z,15.40
2023-04-13T07:26:40.005Z,11.70
2023-04-13T07:29:13.666Z,10.20
2023-04-13T07:31:45.540Z,12.20
2023-04-13T07:34:13.725Z,8.70
2023-04-13T07:36:45.214Z,13.50
2023-04-13T07:39:16.354Z,17.10
2023-04-13T07:41:47.453Z,12.00
2023-04-13T07:44:19.289Z,17.40
2023-04-13T07:46:48.830Z,14.40
2023-04-13T07:49:17.481Z,17.20
2023-04-13T07:51:46.602Z,11.80
2023-04-13T07:54:17.046Z,9.00
2023-04-13T07:56:46.057Z,15.20
2023-04-13T07:59:15.669Z,12.80
2023-04-13T08:01:46.572Z,16.40
2023-04-13T08:04:14.855Z,17.60
2023-04-13T08:06:43.712Z,15.40
2023-04-13T08:09:12.048Z,11.80
2023-04-13T08:11:42.530Z,13.30
2023-04-13T08:14:12.034Z,16.60
2023-04-13T08:16:40.898Z,13.50
2023-04-13T08:19:10.299Z,11.70
2023-04-13T08:21:42.807Z,14.70
2023-04-13T08:24:10.944Z,9.10
2023-04-13T08:26:40.356Z,17.20
2023-04-13T08:29:09.421Z,24.20
2023-04-13T08:31:38.644Z,38.70
2023-04-13T08:34:10.371Z,11.80
2023-04-13T08:36:38.628Z,10.00
2023-04-13T08:39:10.346Z,8.80
2023-04-13T08:41:43.463Z,9.70
2023-04-13T08:44:13.795Z,12.40
2023-04-13T08:46:46.440Z,8.40
2023-04-13T08:49:16.967Z,10.40
2023-04-13T08:52:20.898Z,10.30
2023-04-13T08:54:55.036Z,13.80
2023-04-13T08:57:28.054Z,11.60
2023-04-13T08:59:58.430Z,10.80
2023-04-13T09:02:36.814Z,12.90
2023-04-13T09:05:16.719Z,9.50
2023-04-13T09:07:53.780Z,11.80
2023-04-13T09:10:23.999Z,14.80
2023-04-13T09:12:52.289Z,12.10
2023-04-13T09:15:20.953Z,13.40
2023-04-13T09:17:56.365Z,10.00
2023-04-13T09:20:25.411Z,10.90
2023-04-13T09:22:53.757Z,8.20
2023-04-13T09:25:27.470Z,10.20
2023-04-13T09:27:57.172Z,12.50
2023-04-13T09:30:27.459Z,24.90
2023-04-13T09:33:06.392Z,10.20
2023-04-13T09:35:35.643Z,14.00
2023-04-13T09:38:05.251Z,5.60
2023-04-13T09:40:33.757Z,9.90
2023-04-13T09:43:09.624Z,11.80
2023-04-13T09:45:39.730Z,7.20
2023-04-13T09:48:22.714Z,12.50
2023-04-13T09:51:07.303Z,10.20
2023-04-13T09:53:49.944Z,8.40
2023-04-13T09:56:18.598Z,8.30
2023-04-13T09:58:48.185Z,9.40
2023-04-13T10:01:17.568Z,10.50
2023-04-13T10:03:45.944Z,9.20
2023-04-13T10:06:14.734Z,6.80
2023-04-13T10:08:46.625Z,7.90
2023-04-13T10:11:16.343Z,8.70
2023-04-13T10:13:52.284Z,8.60
2023-04-13T10:16:51.468Z,10.00
2023-04-13T10:19:31.176Z,6.30
2023-04-13T10:22:00.183Z,9.80
2023-04-13T10:24:29.070Z,8.70
2023-04-13T10:27:00.488Z,7.90
2023-04-13T10:29:30.939Z,20.40
2023-04-13T10:32:05.309Z,12.30
2023-04-13T10:34:35.151Z,10.30
2023-04-13T10:37:07.477Z,8.90
2023-04-13T10:39:36.434Z,10.20
2023-04-13T10:42:12.927Z,6.80
2023-04-13T10:44:42.995Z,8.00
2023-04-13T10:47:12.536Z,7.80
2023-04-13T10:49:41.391Z,8.70
2023-04-13T10:52:11.305Z,11.30
2023-04-13T10:54:42.006Z,35.10
2023-04-13T10:57:11.748Z,13.70
2023-04-13T10:59:56.194Z,6.90
2023-04-13T11:02:30.788Z,8.00
2023-04-13T11:04:59.685Z,6.50
2023-04-13T11:07:29.009Z,8.30
2023-04-13T11:12:30.173Z,10.80
2023-04-13T11:14:59.134Z,7.50
2023-04-13T11:17:27.545Z,9.40
2023-04-13T11:19:57.381Z,9.30
2023-04-13T11:22:29.104Z,10.30
2023-04-13T11:25:08.547Z,8.80
2023-04-13T11:27:38.172Z,7.60
2023-04-13T11:30:09.569Z,10.50
2023-04-13T11:32:43.128Z,6.90
2023-04-13T11:35:17.389Z,6.50
2023-04-13T11:37:49.887Z,8.20
2023-04-13T11:40:25.711Z,6.60
2023-04-13T11:42:56.137Z,10.30
2023-04-13T11:45:30.871Z,12.70
2023-04-13T11:47:59.983Z,9.10
2023-04-13T11:50:28.576Z,9.80
2023-04-13T11:52:57.250Z,11.20
2023-04-13T11:55:26.342Z,8.20
2023-04-13T11:57:55.208Z,9.10
2023-04-13T12:00:26.861Z,13.90
2023-04-13T12:03:03.250Z,6.70
2023-04-13T12:05:34.447Z,8.20
2023-04-13T12:08:04.560Z,9.00
2023-04-13T12:10:42.910Z,8.80
2023-04-13T12:13:21.075Z,9.00
2023-04-13T12:16:08.711Z,8.10
2023-04-13T12:18:57.557Z,8.30
2023-04-13T12:21:28.934Z,5.60
2023-04-13T12:24:02.680Z,9.50
2023-04-13T12:27:16.284Z,6.70
2023-04-13T12:29:22.835Z,6.60
2023-04-13T12:31:51.063Z,7.10
2023-04-13T12:34:20.909Z,7.00
2023-04-13T12:36:49.002Z,9.90
2023-04-13T12:39:17.246Z,6.30
2023-04-13T12:41:45.624Z,9.40
2023-04-13T12:44:14.692Z,5.20
2023-04-13T12:46:42.977Z,4.50
2023-04-13T12:49:11.228Z,9.10
2023-04-13T12:51:39.256Z,5.90
2023-04-13T12:54:13.350Z,5.90
2023-04-13T12:56:41.514Z,10.20
2023-04-13T12:59:09.630Z,5.70
2023-04-13T13:01:38.213Z,9.60
2023-04-13T13:04:07.063Z,6.00
2023-04-13T13:06:35.431Z,7.00
2023-04-13T13:09:03.591Z,6.10
2023-04-13T13:11:32.353Z,5.40
2023-04-13T13:14:00.468Z,6.10
2023-04-13T13:16:28.560Z,13.30
2023-04-13T13:18:57.319Z,11.80
2023-04-13T13:21:26.827Z,12.20
2023-04-13T13:23:55.029Z,9.40
2023-04-13T13:26:25.203Z,5.90
2023-04-13T13:28:54.507Z,6.60
2023-04-13T13:31:22.841Z,13.40
2023-04-13T13:33:51.043Z,7.70
2023-04-13T13:36:19.433Z,3.80
2023-04-13T13:38:47.724Z,11.40
2023-04-13T13:41:16.141Z,11.80
2023-04-13T13:43:44.366Z,10.10
2023-04-13T13:46:12.507Z,6.20
2023-04-13T13:48:41.176Z,5.30
2023-04-13T13:51:28.425Z,6.30
2023-04-13T13:53:57.452Z,8.30
2023-04-13T13:56:26.227Z,8.50
2023-04-13T13:58:54.723Z,5.50
2023-04-13T14:01:22.756Z,8.10
2023-04-13T14:03:51.320Z,7.20
2023-04-13T14:06:20.383Z,5.60
2023-04-13T14:08:48.531Z,4.50
2023-04-13T14:11:17.012Z,9.50
2023-04-13T14:13:45.252Z,9.20
2023-04-13T14:16:13.317Z,7.40
2023-04-13T14:18:41.385Z,4.90
2023-04-13T14:21:09.557Z,7.40
2023-04-13T14:23:40.425Z,5.90
2023-04-13T14:26:08.752Z,8.30
2023-04-13T14:28:37.101Z,6.80
2023-04-13T14:31:05.715Z,5.90
2023-04-13T14:33:34.430Z,7.20
2023-04-13T14:36:02.958Z,4.90
2023-04-13T14:38:31.129Z,7.30
2023-04-13T14:40:59.139Z,6.80
2023-04-13T14:43:27.330Z,5.00
2023-04-13T14:45:55.371Z,4.50
2023-04-13T14:48:24.134Z,4.60
2023-04-13T14:50:53.088Z,5.50
2023-04-13T14:53:21.727Z,4.30
2023-04-13T14:55:49.907Z,9.50
2023-04-13T14:58:18.146Z,5.50
2023-04-13T15:00:46.354Z,7.10
2023-04-13T15:03:15.076Z,5.20
2023-04-13T15:05:46.524Z,7.90
2023-04-13T15:08:16.987Z,6.90
2023-04-13T15:10:45.966Z,7.10
2023-04-13T15:13:14.511Z,6.70
2023-04-13T15:15:42.798Z,8.20
2023-04-13T15:18:10.760Z,6.60
2023-04-13T15:20:38.845Z,6.30
2023-04-13T15:23:07.172Z,7.10
2023-04-13T15:25:37.325Z,6.40
2023-04-13T15:28:05.521Z,7.90
2023-04-13T15:30:37.038Z,6.80
2023-04-13T15:33:06.010Z,5.70
2023-04-13T15:35:36.109Z,4.80
2023-04-13T15:38:05.625Z,9.50
2023-04-13T15:40:34.267Z,5.10
2023-04-13T15:43:03.639Z,6.50
2023-04-13T15:45:32.684Z,8.50
2023-04-13T15:48:01.792Z,6.20
2023-04-13T15:50:29.893Z,6.70
2023-04-13T15:52:58.428Z,6.90
2023-04-13T15:55:26.862Z,9.90
2023-04-13T15:57:56.196Z,8.20
2023-04-13T16:00:26.039Z,5.50
2023-04-13T16:02:54.330Z,5.90
2023-04-13T16:05:22.982Z,7.50
2023-04-13T16:07:51.650Z,8.70
2023-04-13T16:10:20.162Z,6.00
2023-04-13T16:12:50.099Z,6.30
2023-04-13T16:15:19.595Z,12.50
2023-04-13T16:17:48.457Z,6.50
2023-04-13T16:20:21.262Z,9.50
2023-04-13T16:22:53.133Z,9.80
2023-04-13T16:25:21.541Z,10.30
2023-04-13T16:27:50.161Z,8.50
2023-04-13T16:30:21.218Z,7.20
2023-04-13T16:32:50.849Z,10.60
2023-04-13T16:35:19.311Z,8.30
2023-04-13T16:37:47.533Z,10.30
2023-04-13T16:40:17.179Z,21.30
2023-04-13T16:42:46.341Z,11.20
2023-04-13T16:45:15.228Z,19.00
2023-04-13T16:47:44.080Z,12.70
2023-04-13T16:50:13.471Z,7.10
2023-04-13T16:52:41.990Z,12.50
2023-04-13T16:55:15.163Z,17.00
2023-04-13T16:57:43.870Z,12.70
2023-04-13T17:00:12.845Z,16.40
2023-04-13T17:02:42.710Z,11.30
2023-04-13T17:05:12.873Z,10.10
2023-04-13T17:07:43.795Z,14.10
2023-04-13T17:10:12.970Z,8.30
2023-04-13T17:12:41.676Z,7.40
2023-04-13T17:15:10.253Z,7.40
2023-04-13T17:17:38.758Z,9.90
2023-04-13T17:20:08.731Z,9.80
2023-04-13T17:22:37.415Z,14.90
2023-04-13T17:25:07.175Z,13.30
2023-04-13T17:27:35.074Z,16.80
2023-04-13T17:30:03.710Z,9.00
2023-04-13T17:32:31.838Z,9.70
2023-04-13T17:34:59.778Z,9.00
2023-04-13T17:37:29.462Z,10.70
2023-04-13T17:39:57.620Z,9.00
2023-04-13T17:42:26.695Z,6.90
2023-04-13T17:44:54.855Z,8.10
2023-04-13T17:47:24.863Z,8.40
2023-04-13T17:49:53.438Z,9.30
2023-04-13T17:52:21.744Z,12.10
2023-04-13T17:54:49.905Z,8.30
2023-04-13T17:57:18.460Z,9.80
2023-04-13T17:59:47.483Z,5.20
2023-04-13T18:02:15.531Z,7.00
2023-04-13T18:04:43.584Z,8.80
2023-04-13T18:07:11.744Z,9.00
2023-04-13T18:09:39.875Z,8.70
2023-04-13T18:12:07.742Z,12.10
2023-04-13T18:14:36.014Z,8.80
2023-04-13T18:17:04.827Z,11.40
2023-04-13T18:19:32.886Z,10.20
2023-04-13T18:22:01.232Z,12.10
2023-04-13T18:24:29.596Z,15.60
2023-04-13T18:26:57.447Z,11.70
2023-04-13T18:29:25.648Z,12.60
2023-04-13T18:31:53.931Z,19.70
2023-04-13T18:34:21.900Z,10.40
2023-04-13T18:36:50.248Z,10.50
2023-04-13T18:39:18.247Z,10.30
2023-04-13T18:41:47.287Z,8.60
2023-04-13T18:44:15.606Z,11.10
2023-04-13T18:46:43.943Z,10.30
2023-04-13T18:49:12.147Z,8.80
2023-04-13T18:51:40.374Z,11.20
2023-04-13T18:54:08.208Z,9.00
2023-04-13T18:56:36.673Z,10.70
2023-04-13T18:59:05.598Z,11.20
2023-04-13T19:01:33.988Z,14.30
2023-04-13T19:04:03.134Z,11.80
2023-04-13T19:06:31.745Z,15.60
2023-04-13T19:09:00.093Z,9.50
2023-04-13T19:11:28.185Z,14.50
2023-04-13T19:13:56.935Z,11.30
2023-04-13T19:16:26.389Z,11.70
2023-04-13T19:18:54.595Z,10.20
2023-04-13T19:21:24.463Z,10.40
2023-04-13T19:23:53.137Z,15.60
2023-04-13T19:26:21.554Z,12.60
2023-04-13T19:28:50.004Z,17.50
2023-04-13T19:31:18.312Z,15.90
2023-04-13T19:33:46.542Z,20.20
2023-04-13T19:36:15.904Z,22.90
2023-04-13T19:38:45.296Z,20.20
2023-04-13T19:41:13.780Z,24.20
2023-04-13T19:43:41.732Z,23.30
2023-04-13T19:46:09.911Z,21.60
2023-04-13T19:48:38.942Z,25.40
2023-04-13T19:51:07.832Z,23.20
2023-04-13T19:53:38.252Z,25.10
2023-04-13T19:56:06.869Z,27.40
2023-04-13T19:58:35.084Z,24.90
2023-04-13T20:01:06.446Z,24.20
2023-04-13T20:03:35.452Z,28.80
2023-04-13T20:06:03.834Z,29.70
2023-04-13T20:08:32.277Z,28.80
2023-04-13T20:11:00.849Z,27.50
2023-04-13T20:13:28.738Z,24.50
2023-04-13T20:15:56.802Z,22.90
2023-04-13T20:18:25.033Z,22.10
2023-04-13T20:20:53.068Z,22.10
2023-04-13T20:23:21.215Z,28.20
2023-04-13T20:25:49.178Z,32.00
2023-04-13T20:28:17.976Z,28.30
2023-04-13T20:30:45.889Z,21.80
2023-04-13T20:33:14.026Z,28.10
2023-04-13T20:35:42.221Z,30.50
2023-04-13T20:38:10.397Z,30.80
2023-04-13T20:40:38.429Z,23.30
2023-04-13T20:43:08.428Z,23.10
2023-04-13T20:45:36.430Z,28.30
2023-04-13T20:50:36.497Z,25.80
2023-04-13T20:53:05.508Z,24.90
2023-04-13T20:55:33.469Z,30.30
2023-04-13T20:58:01.804Z,23.00
2023-04-13T21:00:30.214Z,27.20
2023-04-13T21:02:58.340Z,28.90
2023-04-13T21:05:26.410Z,24.90
2023-04-13T21:07:56.907Z,22.40
2023-04-13T21:10:25.676Z,33.40
2023-04-13T21:12:53.589Z,25.30
2023-04-13T21:15:21.435Z,27.20
2023-04-13T21:17:49.453Z,28.30
2023-04-13T21:20:17.477Z,28.10
2023-04-13T21:22:45.400Z,27.30
2023-04-13T21:25:13.399Z,32.50
2023-04-13T21:27:41.350Z,28.10
2023-04-13T21:30:09.702Z,26.80
2023-04-13T21:32:37.725Z,27.30
2023-04-13T21:35:06.332Z,30.40
2023-04-13T21:37:34.387Z,32.20
2023-04-13T21:40:02.611Z,28.90
2023-04-13T21:42:30.844Z,31.20
2023-04-13T21:44:58.856Z,30.10
2023-04-13T21:47:27.023Z,31.40
2023-04-13T21:49:55.120Z,31.70
2023-04-13T21:52:23.037Z,31.90
2023-04-13T21:54:51.840Z,31.20
2023-04-13T21:57:20.167Z,36.80
2023-04-13T21:59:48.087Z,24.20
2023-04-13T22:02:16.046Z,30.50
2023-04-13T22:04:44.170Z,29.50
2023-04-13T22:07:12.323Z,26.20
2023-04-13T22:09:40.302Z,29.70
2023-04-13T22:12:10.941Z,32.60
2023-04-13T22:14:38.961Z,31.80
2023-04-13T22:17:07.252Z,32.50
2023-04-13T22:19:35.257Z,38.00
2023-04-13T22:22:03.315Z,36.90
2023-04-13T22:24:31.331Z,44.40
2023-04-13T22:27:02.433Z,33.60
2023-04-13T22:29:31.712Z,38.90
2023-04-13T22:31:59.656Z,33.20
2023-04-13T22:34:28.546Z,29.20
2023-04-13T22:36:56.462Z,34.90
2023-04-13T22:39:24.771Z,31.90
2023-04-13T22:41:52.717Z,33.70
2023-04-13T22:44:20.689Z,35.40
2023-04-13T22:46:48.687Z,35.50
2023-04-13T22:49:16.751Z,28.70
2023-04-13T22:51:44.750Z,35.50
2023-04-13T22:54:12.660Z,35.40
2023-04-13T22:56:40.479Z,29.00
2023-04-13T22:59:08.420Z,26.00
2023-04-13T23:01:36.384Z,23.60
2023-04-13T23:04:04.853Z,26.70
2023-04-13T23:06:36.280Z,21.50
2023-04-13T23:09:04.873Z,25.00
2023-04-13T23:11:32.814Z,31.10
2023-04-13T23:14:00.830Z,30.60
2023-04-13T23:16:28.905Z,28.90
2023-04-13T23:18:57.012Z,28.80
2023-04-13T23:21:25.034Z,25.70
2023-04-13T23:23:53.006Z,27.20
2023-04-13T23:26:21.180Z,25.30
2023-04-13T23:28:49.334Z,23.20
2023-04-13T23:31:17.307Z,29.10
2023-04-13T23:33:45.332Z,24.70
2023-04-13T23:36:13.416Z,25.00
2023-04-13T23:38:41.883Z,22.40
2023-04-13T23:41:09.764Z,28.50
2023-04-13T23:43:37.730Z,28.30
2023-04-13T23:46:05.807Z,22.60
2023-04-13T23:48:33.753Z,21.70
2023-04-13T23:51:01.646Z,22.60
2023-04-13T23:53:29.726Z,27.30
2023-04-13T23:55:58.116Z,24.40
2023-04-13T23:58:26.099Z,21.10
